Time;durP1;ratioP1;P1;durP2;ratioP2;P2;SDS_P1;SDS_P2;PMS_P1;PMS_P2;Temp;Humidity;BMP_temperature;BMP_pressure;BME280_temperature;BME280_humidity;BME280_pressure;Samples;Min_cycle;Max_cycle;Signal;HPM_P1;HPM_P2
2021/04/04 00:01:13;;;;;;;0.60;0.60;;;7.90;99.90;;;;;;5072998;28;20174;-76
2021/04/04 00:03:38;;;;;;;5.47;1.10;;;7.90;99.90;;;;;;5074286;28;20688;-75
2021/04/04 00:06:04;;;;;;;10.30;0.85;;;7.90;99.90;;;;;;5073970;28;20724;-75
2021/04/04 00:08:29;;;;;;;1.67;1.48;;;7.70;99.90;;;;;;5074183;28;20170;-74
2021/04/04 00:10:55;;;;;;;0.30;0.30;;;7.80;99.90;;;;;;5073946;28;20680;-75
2021/04/04 00:13:20;;;;;;;0.32;0.32;;;7.60;99.90;;;;;;5074115;28;20190;-75
2021/04/04 00:15:46;;;;;;;0.85;0.85;;;7.60;99.90;;;;;;5072999;28;20212;-76
2021/04/04 00:18:12;;;;;;;0.60;0.60;;;7.50;99.90;;;;;;5072743;28;20167;-77
2021/04/04 00:20:37;;;;;;;3.70;0.95;;;7.50;99.90;;;;;;5073788;28;20220;-75
2021/04/04 00:23:03;;;;;;;0.40;0.40;;;7.50;99.90;;;;;;5073882;28;20186;-75
2021/04/04 00:25:30;;;;;;;10.77;2.70;;;7.70;99.90;;;;;;5073517;28;20280;-75
2021/04/04 00:27:55;;;;;;;0.40;0.40;;;7.90;99.90;;;;;;5073787;28;20171;-75
2021/04/04 00:30:21;;;;;;;2.67;1.58;;;8.00;99.90;;;;;;5073795;28;20162;-75
2021/04/04 00:32:49;;;;;;;33.95;3.08;;;7.80;99.90;;;;;;5073637;28;20173;-76
2021/04/04 00:35:16;;;;;;;4.93;3.22;;;7.90;99.90;;;;;;5073615;28;20496;-75
2021/04/04 00:37:46;;;;;;;0.32;0.32;;;7.90;99.90;;;;;;5076288;28;20211;-74
2021/04/04 00:40:13;;;;;;;0.98;0.98;;;7.80;99.90;;;;;;5093942;28;20632;-74
2021/04/04 00:42:39;;;;;;;6.68;1.67;;;7.60;99.90;;;;;;5093444;28;20205;-74
2021/04/04 00:45:09;;;;;;;0.57;0.57;;;7.40;99.90;;;;;;5093503;28;20725;-74
2021/04/04 00:47:34;;;;;;;1.38;1.27;;;7.50;99.90;;;;;;5093442;28;20158;-75
2021/04/04 00:50:00;;;;;;;0.40;0.40;;;7.70;99.90;;;;;;5093579;28;20640;-74
2021/04/04 00:52:25;;;;;;;11.27;0.93;;;7.70;99.90;;;;;;5093380;28;20162;-74
2021/04/04 00:54:51;;;;;;;3.00;1.10;;;7.70;99.90;;;;;;5093629;28;20180;-74
2021/04/04 00:57:17;;;;;;;3.72;0.52;;;7.90;99.90;;;;;;5093441;28;20197;-74
2021/04/04 00:59:42;;;;;;;0.90;0.85;;;8.10;99.90;;;;;;5093528;28;20576;-74
2021/04/04 01:02:13;;;;;;;1.65;1.10;;;8.20;99.90;;;;;;5093334;28;20215;-74
2021/04/04 01:04:40;;;;;;;0.50;0.50;;;8.10;99.90;;;;;;5093297;28;20252;-74
2021/04/04 01:07:06;;;;;;;1.15;0.98;;;8.00;99.90;;;;;;5093415;28;20679;-75
2021/04/04 01:09:31;;;;;;;0.38;0.38;;;7.90;99.90;;;;;;5093404;28;20170;-74
2021/04/04 01:12:08;;;;;;;0.60;0.60;;;7.90;99.90;;;;;;5093475;28;20170;-74
2021/04/04 01:14:38;;;;;;;1.65;1.33;;;8.00;99.90;;;;;;5093371;28;20165;-75
2021/04/04 01:17:05;;;;;;;2.03;1.88;;;7.80;99.90;;;;;;5093350;28;20238;-75
2021/04/04 01:20:03;;;;;;;0.60;0.60;;;7.60;99.90;;;;;;5092012;28;20715;-74
2021/04/04 01:22:58;;;;;;;0.73;0.70;;;7.60;99.90;;;;;;5091867;28;20192;-74
2021/04/04 01:25:46;;;;;;;0.65;0.65;;;7.70;99.90;;;;;;5092738;28;20256;-74
2021/04/04 01:28:24;;;;;;;5.93;1.08;;;7.90;99.90;;;;;;5092999;28;20169;-73
2021/04/04 01:30:51;;;;;;;0.60;0.60;;;7.90;99.90;;;;;;5093231;28;20635;-74
2021/04/04 01:33:19;;;;;;;1.25;1.15;;;7.90;99.90;;;;;;5093214;28;20197;-74
2021/04/04 01:35:49;;;;;;;10.07;1.27;;;7.70;99.90;;;;;;5093002;28;20205;-74
2021/04/04 01:38:19;;;;;;;1.65;1.40;;;7.70;99.90;;;;;;5093098;28;20524;-74
2021/04/04 01:40:49;;;;;;;1.60;1.30;;;7.60;99.90;;;;;;5093074;28;20158;-74
2021/04/04 01:43:16;;;;;;;1.92;0.55;;;7.70;99.90;;;;;;5093135;28;20573;-75
2021/04/04 01:45:44;;;;;;;0.80;0.80;;;7.50;99.90;;;;;;5092842;28;20288;-76
2021/04/04 01:48:13;;;;;;;2.30;1.02;;;7.80;99.90;;;;;;5093089;28;20184;-76
2021/04/04 01:50:43;;;;;;;0.63;0.45;;;8.20;99.90;;;;;;5093056;28;20162;-76
2021/04/04 01:53:10;;;;;;;0.35;0.25;;;8.20;99.90;;;;;;5092972;28;20170;-78
2021/04/04 01:55:38;;;;;;;6.80;1.30;;;8.10;99.90;;;;;;5092982;28;20186;-77
2021/04/04 01:58:07;;;;;;;0.60;0.60;;;8.00;99.90;;;;;;5092921;28;20166;-78
2021/04/04 02:00:33;;;;;;;0.82;0.82;;;7.90;99.90;;;;;;5093217;28;20253;-79
2021/04/04 02:02:59;;;;;;;0.40;0.40;;;8.00;99.90;;;;;;5092923;28;20685;-77
2021/04/04 02:05:25;;;;;;;1.08;0.98;;;7.80;99.90;;;;;;5091682;28;20564;-77
2021/04/04 02:07:52;;;;;;;4.45;1.65;;;7.70;99.90;;;;;;5092880;28;20157;-77
2021/04/04 02:10:28;;;;;;;0.70;0.70;;;7.90;99.90;;;;;;5092791;28;20185;-75
2021/04/04 02:12:56;;;;;;;6.95;0.85;;;7.80;99.90;;;;;;5091810;28;20559;-75
2021/04/04 02:15:26;;;;;;;0.73;0.73;;;7.80;99.90;;;;;;5092625;28;20227;-75
2021/04/04 02:17:53;;;;;;;0.60;0.60;;;7.40;99.90;;;;;;5092764;28;20157;-75
2021/04/04 02:20:22;;;;;;;0.43;0.43;;;7.40;99.90;;;;;;5092702;28;20174;-75
2021/04/04 02:22:48;;;;;;;0.43;0.43;;;7.50;99.90;;;;;;5091381;28;20176;-74
2021/04/04 02:25:16;;;;;;;0.40;0.40;;;7.30;99.90;;;;;;5092316;28;20213;-73
2021/04/04 02:27:42;;;;;;;2.05;0.82;;;7.30;99.90;;;;;;5092602;28;20722;-74
2021/04/04 02:30:11;;;;;;;0.90;0.88;;;7.30;99.90;;;;;;5092670;28;20154;-74
2021/04/04 02:32:49;;;;;;;1.75;1.65;;;7.40;99.90;;;;;;5092521;28;20545;-76
2021/04/04 02:35:21;;;;;;;0.55;0.55;;;7.50;99.90;;;;;;5092594;28;20942;-75
2021/04/04 02:37:47;;;;;;;1.77;0.75;;;7.50;99.90;;;;;;5092440;28;20158;-75
2021/04/04 02:40:15;;;;;;;0.47;0.47;;;7.40;99.90;;;;;;5095521;28;20628;-76
2021/04/04 02:42:43;;;;;;;2.65;1.58;;;7.40;99.90;;;;;;5096114;28;20162;-75
2021/04/04 02:45:09;;;;;;;2.13;0.52;;;7.30;99.90;;;;;;5094695;28;20209;-75
2021/04/04 02:48:03;;;;;;;4.43;2.08;;;7.50;99.90;;;;;;5095994;28;20514;-74
2021/04/04 02:50:31;;;;;;;3.28;1.10;;;7.70;99.90;;;;;;5096246;28;20157;-74
2021/04/04 02:53:01;;;;;;;0.43;0.43;;;7.70;99.90;;;;;;5095873;28;20677;-76
2021/04/04 02:55:34;;;;;;;0.30;0.30;;;7.50;99.90;;;;;;5095923;28;20641;-75
2021/04/04 02:58:07;;;;;;;2.30;2.10;;;7.30;99.90;;;;;;5095908;28;20174;-75
2021/04/04 03:00:35;;;;;;;1.38;1.25;;;7.30;99.90;;;;;;5096088;28;20244;-75
2021/04/04 03:03:03;;;;;;;0.65;0.32;;;7.20;99.90;;;;;;5095693;28;20162;-74
2021/04/04 03:05:29;;;;;;;0.40;0.40;;;7.30;99.90;;;;;;5095508;28;20202;-74
2021/04/04 03:07:57;;;;;;;0.98;0.50;;;7.30;99.90;;;;;;5095632;28;20155;-74
2021/04/04 03:10:23;;;;;;;2.15;1.80;;;7.40;99.90;;;;;;5095601;28;20191;-75
2021/04/04 03:12:51;;;;;;;11.15;1.10;;;7.40;99.90;;;;;;5095451;28;20158;-75
2021/04/04 03:15:18;;;;;;;0.40;0.40;;;7.30;99.90;;;;;;5094074;28;20502;-73
2021/04/04 03:17:46;;;;;;;3.75;1.42;;;7.40;99.90;;;;;;5095452;28;20178;-75
2021/04/04 03:20:14;;;;;;;0.30;0.30;;;7.50;99.90;;;;;;5095483;28;20150;-76
2021/04/04 03:22:43;;;;;;;4.47;1.33;;;7.60;99.90;;;;;;5095389;28;20158;-76
2021/04/04 03:25:10;;;;;;;1.55;1.45;;;7.80;99.90;;;;;;5093627;28;20221;-76
2021/04/04 03:27:37;;;;;;;0.80;0.80;;;8.00;99.90;;;;;;5094001;28;20637;-76
2021/04/04 03:30:07;;;;;;;3.28;1.35;;;8.10;99.90;;;;;;5095257;28;20172;-74
2021/04/04 03:32:36;;;;;;;0.40;0.40;;;8.10;99.90;;;;;;5095094;28;20166;-74
2021/04/04 03:35:06;;;;;;;0.35;0.35;;;7.90;99.90;;;;;;5094999;28;20569;-75
2021/04/04 03:37:32;;;;;;;1.20;1.10;;;8.00;99.90;;;;;;5095218;28;20165;-76
2021/04/04 03:39:58;;;;;;;0.52;0.50;;;7.90;99.90;;;;;;5093803;28;20178;-75
2021/04/04 03:42:26;;;;;;;1.05;0.38;;;7.90;99.90;;;;;;5095075;28;20158;-76
2021/04/04 03:44:53;;;;;;;3.83;1.48;;;7.80;99.90;;;;;;5094849;28;20224;-76
2021/04/04 03:47:19;;;;;;;0.95;0.95;;;7.70;99.90;;;;;;5094825;28;20192;-74
2021/04/04 03:49:45;;;;;;;4.72;1.02;;;7.90;99.90;;;;;;5094679;28;20964;-74
2021/04/04 03:52:12;;;;;;;2.38;1.40;;;8.10;99.90;;;;;;5093507;28;20165;-74
2021/04/04 03:54:39;;;;;;;0.45;0.45;;;8.10;99.90;;;;;;5094888;28;20247;-74
2021/04/04 03:57:07;;;;;;;0.50;0.50;;;8.20;99.90;;;;;;5094561;28;21134;-74
2021/04/04 03:59:34;;;;;;;0.98;0.98;;;8.20;99.90;;;;;;5094527;28;20165;-75
2021/04/04 04:02:01;;;;;;;7.20;2.45;;;7.90;99.90;;;;;;5094497;28;20625;-75
2021/04/04 04:04:27;;;;;;;5.53;1.75;;;7.80;99.90;;;;;;5094614;28;20215;-73
2021/04/04 04:06:53;;;;;;;3.22;0.50;;;7.70;99.90;;;;;;5094254;28;20221;-75
2021/04/04 04:09:20;;;;;;;0.63;0.63;;;7.90;99.90;;;;;;5094126;28;20158;-74
2021/04/04 04:11:48;;;;;;;6.18;1.58;;;7.90;99.90;;;;;;5094369;28;20576;-75
2021/04/04 04:14:16;;;;;;;5.43;1.90;;;8.00;99.90;;;;;;5094127;28;20173;-74
2021/04/04 04:16:42;;;;;;;0.20;0.20;;;7.90;99.90;;;;;;5094287;28;20189;-75
2021/04/04 04:19:09;;;;;;;7.78;1.50;;;7.70;99.90;;;;;;5094232;28;20222;-75
2021/04/04 04:21:37;;;;;;;0.75;0.75;;;7.90;99.90;;;;;;5094198;28;20161;-74
2021/04/04 04:24:29;;;;;;;29.13;0.98;;;7.90;99.90;;;;;;5094213;28;20202;-75
2021/04/04 04:26:56;;;;;;;1.27;1.17;;;8.00;99.90;;;;;;5093688;28;20576;-74
2021/04/04 04:29:22;;;;;;;1.17;1.00;;;8.00;99.90;;;;;;5094007;28;20161;-75
2021/04/04 04:31:54;;;;;;;1.40;1.25;;;8.00;99.90;;;;;;5093992;28;20161;-74
2021/04/04 04:34:22;;;;;;;6.90;1.73;;;7.90;99.90;;;;;;5093766;28;20162;-74
2021/04/04 04:36:48;;;;;;;0.45;0.45;;;8.00;99.90;;;;;;5093840;28;20227;-75
2021/04/04 04:39:15;;;;;;;0.90;0.90;;;7.80;99.90;;;;;;5093725;28;20170;-74
2021/04/04 04:41:46;;;;;;;0.77;0.77;;;7.90;99.90;;;;;;5093843;28;20631;-77
2021/04/04 04:44:21;;;;;;;0.60;0.60;;;8.00;99.90;;;;;;5093871;28;20550;-76
2021/04/04 04:46:47;;;;;;;0.57;0.57;;;8.10;99.90;;;;;;5093612;28;20238;-78
2021/04/04 04:49:13;;;;;;;0.60;0.60;;;7.90;99.90;;;;;;5093763;28;20168;-78
2021/04/04 04:51:40;;;;;;;0.30;0.30;;;7.50;99.90;;;;;;5093648;28;20169;-74
2021/04/04 04:54:07;;;;;;;6.43;1.90;;;7.30;99.90;;;;;;5093802;28;20222;-75
2021/04/04 04:56:37;;;;;;;5.22;1.40;;;7.50;99.90;;;;;;5093534;28;20192;-74
2021/04/04 04:59:05;;;;;;;0.65;0.63;;;7.60;99.90;;;;;;5093921;28;20197;-74
2021/04/04 05:01:37;;;;;;;0.28;0.28;;;7.70;99.90;;;;;;5092988;28;20249;-74
2021/04/04 05:04:03;;;;;;;3.03;1.17;;;7.60;99.90;;;;;;5093496;28;20211;-75
2021/04/04 05:06:29;;;;;;;0.68;0.68;;;7.50;99.90;;;;;;5093276;28;20205;-74
2021/04/04 05:08:57;;;;;;;1.17;0.82;;;7.30;99.90;;;;;;5093429;28;20153;-74
2021/04/04 05:11:23;;;;;;;1.05;0.98;;;7.30;99.90;;;;;;5093304;28;20633;-75
2021/04/04 05:13:49;;;;;;;0.88;0.82;;;7.60;99.90;;;;;;5093391;28;20212;-74
2021/04/04 05:16:16;;;;;;;1.40;1.30;;;7.80;99.90;;;;;;5093267;28;20213;-74
2021/04/04 05:18:52;;;;;;;5.05;2.75;;;7.90;99.90;;;;;;5093227;28;20207;-74
2021/04/04 05:21:25;;;;;;;0.40;0.40;;;7.90;99.90;;;;;;5093134;28;20187;-74
2021/04/04 05:24:01;;;;;;;0.35;0.35;;;7.80;99.90;;;;;;5091905;28;20223;-75
2021/04/04 05:26:29;;;;;;;2.47;0.98;;;7.70;99.90;;;;;;5091690;28;20274;-75
2021/04/04 05:28:55;;;;;;;0.77;0.77;;;7.50;99.90;;;;;;5091932;28;20195;-75
2021/04/04 05:31:21;;;;;;;0.60;0.60;;;7.40;99.90;;;;;;5093313;28;20240;-75
2021/04/04 05:33:47;;;;;;;6.82;1.23;;;7.60;99.90;;;;;;5093054;28;20222;-75
2021/04/04 05:36:13;;;;;;;0.47;0.47;;;7.80;99.90;;;;;;5093250;28;20197;-74
2021/04/04 05:38:39;;;;;;;1.02;1.02;;;7.80;99.90;;;;;;5093002;28;20687;-75
2021/04/04 05:41:06;;;;;;;1.30;1.10;;;7.70;99.90;;;;;;5093123;28;20320;-74
2021/04/04 05:43:36;;;;;;;1.33;1.23;;;7.50;99.90;;;;;;5093048;28;20817;-74
2021/04/04 05:46:04;;;;;;;1.00;0.90;;;7.70;99.90;;;;;;5092904;28;20205;-74
2021/04/04 05:49:09;;;;;;;0.25;0.25;;;7.70;99.90;;;;;;5093017;28;20617;-74
2021/04/04 05:51:38;;;;;;;2.38;0.75;;;7.90;99.90;;;;;;5092714;28;20158;-75
2021/04/04 05:54:09;;;;;;;1.08;1.02;;;8.10;99.90;;;;;;5093074;28;20177;-76
2021/04/04 05:57:06;;;;;;;1.88;1.35;;;8.30;99.90;;;;;;5091532;28;20602;-76
2021/04/04 05:59:51;;;;;;;0.40;0.40;;;8.40;99.90;;;;;;5092244;28;20196;-75
2021/04/04 06:02:44;;;;;;;0.60;0.60;;;8.20;99.90;;;;;;5091516;28;20189;-75
2021/04/04 06:05:42;;;;;;;1.88;1.08;;;8.10;99.90;;;;;;5092648;28;20193;-76
2021/04/04 06:08:17;;;;;;;5.93;1.45;;;8.20;99.90;;;;;;5092784;28;20170;-75
2021/04/04 06:11:00;;;;;;;2.90;1.67;;;8.30;99.90;;;;;;5091564;28;20153;-75
2021/04/04 06:14:16;;;;;;;1.05;1.05;;;8.40;99.90;;;;;;5091773;28;20177;-75
2021/04/04 06:17:07;;;;;;;0.63;0.63;;;8.20;99.90;;;;;;5094419;28;20194;-75
2021/04/04 06:19:45;;;;;;;0.68;0.68;;;8.00;99.90;;;;;;5096476;28;20166;-75
2021/04/04 06:22:36;;;;;;;3.10;0.77;;;8.10;99.90;;;;;;5096368;28;20172;-76
2021/04/04 06:25:14;;;;;;;0.60;0.60;;;8.50;99.90;;;;;;5094806;28;20704;-75
2021/04/04 06:27:51;;;;;;;2.38;2.17;;;8.40;99.90;;;;;;5096403;28;20216;-76
2021/04/04 06:30:46;;;;;;;1.65;0.85;;;8.70;99.90;;;;;;5096215;28;20162;-75
2021/04/04 06:33:26;;;;;;;0.85;0.50;;;8.50;99.90;;;;;;5096369;28;20256;-76
2021/04/04 06:36:04;;;;;;;4.93;1.27;;;8.70;99.90;;;;;;5096068;28;20189;-76
2021/04/04 06:39:07;;;;;;;0.45;0.45;;;8.70;99.90;;;;;;5096088;28;20165;-77
2021/04/04 06:41:53;;;;;;;0.52;0.52;;;8.50;99.90;;;;;;5096278;28;20169;-75
2021/04/04 06:44:52;;;;;;;0.73;0.73;;;8.80;99.90;;;;;;5096072;28;20161;-76
2021/04/04 06:47:47;;;;;;;5.75;1.77;;;8.50;99.90;;;;;;5094630;28;20250;-75
2021/04/04 06:50:16;;;;;;;3.03;2.72;;;8.60;99.90;;;;;;5094738;28;20513;-76
2021/04/04 06:52:50;;;;;;;3.00;0.60;;;8.60;99.90;;;;;;5095835;28;20165;-76
2021/04/04 06:55:53;;;;;;;7.05;1.77;;;9.00;99.90;;;;;;5095878;28;20193;-75
2021/04/04 06:58:34;;;;;;;6.60;1.85;;;9.20;99.90;;;;;;5095781;28;20177;-75
2021/04/04 07:01:10;;;;;;;0.75;0.75;;;9.10;99.90;;;;;;5095767;28;20502;-75
2021/04/04 07:03:48;;;;;;;0.43;0.43;;;8.70;99.90;;;;;;5095803;28;20640;-75
2021/04/04 07:06:25;;;;;;;0.73;0.73;;;8.60;99.90;;;;;;5095259;28;20208;-76
2021/04/04 07:09:06;;;;;;;0.30;0.30;;;8.60;99.90;;;;;;5095587;28;20188;-76
2021/04/04 07:11:49;;;;;;;1.63;1.15;;;8.60;99.90;;;;;;5095644;28;20150;-77
2021/04/04 07:14:53;;;;;;;2.95;1.95;;;8.80;99.90;;;;;;5094174;28;20162;-78
2021/04/04 07:17:50;;;;;;;0.60;0.60;;;9.20;99.90;;;;;;5094869;28;20201;-77
2021/04/04 07:20:34;;;;;;;0.65;0.65;;;9.20;99.90;;;;;;5093996;28;20166;-77
2021/04/04 07:23:38;;;;;;;0.68;0.68;;;9.20;99.90;;;;;;5095084;28;20186;-78
2021/04/04 07:26:22;;;;;;;0.88;0.85;;;9.10;99.90;;;;;;5092961;28;20240;-80
2021/04/04 07:28:54;;;;;;;0.85;0.55;;;9.00;99.90;;;;;;5093511;28;20162;-75
2021/04/04 07:31:27;;;;;;;3.15;1.52;;;9.00;99.90;;;;;;5094908;28;20161;-75
2021/04/04 07:34:03;;;;;;;13.55;1.15;;;9.10;99.90;;;;;;5093693;28;20552;-76
2021/04/04 07:36:53;;;;;;;2.25;1.13;;;9.00;99.90;;;;;;5093450;28;20641;-83
2021/04/04 07:39:42;;;;;;;0.88;0.88;;;9.00;99.90;;;;;;5094833;28;20621;-75
2021/04/04 07:42:34;;;;;;;5.38;1.45;;;8.60;99.90;;;;;;5094836;28;20181;-76
2021/04/04 07:45:02;;;;;;;0.55;0.55;;;8.60;99.90;;;;;;5094826;28;20200;-76
2021/04/04 07:47:57;;;;;;;0.80;0.80;;;8.90;99.90;;;;;;5093667;28;20161;-75
2021/04/04 07:50:56;;;;;;;1.77;1.23;;;9.30;99.90;;;;;;5094808;28;20155;-76
2021/04/04 07:53:39;;;;;;;1.25;1.20;;;9.30;99.90;;;;;;5094315;28;20177;-81
2021/04/04 07:56:15;;;;;;;6.18;1.92;;;9.50;99.90;;;;;;5093197;28;20633;-75
2021/04/04 07:58:49;;;;;;;1.10;1.05;;;9.60;99.90;;;;;;5093233;28;20256;-76
2021/04/04 08:01:18;;;;;;;2.67;1.65;;;9.60;99.90;;;;;;5065409;28;20187;-78
2021/04/04 08:04:07;;;;;;;0.47;0.47;;;9.50;99.90;;;;;;5074131;28;20185;-76
2021/04/04 08:06:41;;;;;;;2.92;1.92;;;9.70;99.90;;;;;;5069670;28;20202;-76
2021/04/04 08:09:25;;;;;;;1.13;1.02;;;9.80;99.90;;;;;;5072742;28;20265;-76
2021/04/04 08:12:08;;;;;;;1.38;1.33;;;9.80;99.90;;;;;;5072727;28;20162;-76
2021/04/04 08:14:44;;;;;;;16.13;2.40;;;9.80;99.90;;;;;;5073135;28;20162;-76
2021/04/04 08:17:10;;;;;;;1.38;1.27;;;9.40;99.90;;;;;;5072539;28;20251;-75
2021/04/04 08:19:38;;;;;;;2.50;2.30;;;9.00;99.90;;;;;;5069537;28;20721;-76
2021/04/04 08:22:03;;;;;;;2.38;1.40;;;9.40;99.90;;;;;;5063833;28;20213;-78
2021/04/04 08:24:39;;;;;;;3.78;1.67;;;9.40;99.90;;;;;;5053137;28;20222;-76
2021/04/04 08:27:26;;;;;;;5.93;3.20;;;9.70;99.90;;;;;;5064088;28;20263;-76
2021/04/04 08:30:20;;;;;;;1.33;1.25;;;10.00;99.90;;;;;;5059524;28;20204;-76
2021/04/04 08:32:48;;;;;;;2.20;2.00;;;10.10;99.90;;;;;;5072851;28;20228;-76
2021/04/04 08:35:18;;;;;;;2.38;2.13;;;10.20;99.90;;;;;;5071723;28;20216;-76
2021/04/04 08:37:53;;;;;;;3.00;2.70;;;10.20;99.90;;;;;;5071593;28;20159;-77
2021/04/04 08:40:20;;;;;;;1.75;1.63;;;10.10;99.90;;;;;;5071300;28;20589;-77
2021/04/04 08:42:48;;;;;;;9.02;2.17;;;10.20;99.90;;;;;;5072897;28;20660;-77
2021/04/04 08:45:31;;;;;;;1.73;1.60;;;10.40;99.90;;;;;;5072689;28;20221;-77
2021/04/04 08:47:58;;;;;;;1.73;1.63;;;10.30;99.90;;;;;;5072207;28;20241;-76
2021/04/04 08:50:27;;;;;;;2.65;2.40;;;10.10;99.90;;;;;;5071267;28;20155;-75
2021/04/04 08:52:59;;;;;;;30.52;1.92;;;10.30;99.90;;;;;;5071615;28;20171;-76
2021/04/04 08:55:29;;;;;;;2.33;2.22;;;10.50;99.90;;;;;;5072911;28;20191;-76
2021/04/04 08:57:59;;;;;;;4.25;2.35;;;10.20;99.90;;;;;;5071025;28;20163;-76
2021/04/04 09:00:29;;;;;;;1.65;1.55;;;10.10;99.90;;;;;;5071865;28;20171;-76
2021/04/04 09:03:01;;;;;;;2.78;2.58;;;10.10;99.90;;;;;;5072223;28;20169;-76
2021/04/04 09:05:30;;;;;;;1.67;1.58;;;10.20;99.90;;;;;;5070737;28;20676;-79
2021/04/04 09:07:58;;;;;;;2.40;1.48;;;10.30;99.90;;;;;;5072669;28;20155;-76
2021/04/04 09:10:27;;;;;;;2.60;1.88;;;10.40;99.90;;;;;;5071600;28;20159;-78
2021/04/04 09:12:53;;;;;;;6.05;2.55;;;10.40;99.90;;;;;;5071670;28;20167;-74
2021/04/04 09:15:20;;;;;;;8.48;3.28;;;10.20;99.90;;;;;;5072845;28;20522;-75
2021/04/04 09:17:57;;;;;;;2.95;2.38;;;10.00;99.90;;;;;;5071612;28;20155;-74
2021/04/04 09:20:35;;;;;;;4.80;3.30;;;10.50;99.90;;;;;;5072382;28;20159;-80
2021/04/04 09:23:05;;;;;;;8.23;1.70;;;10.40;99.90;;;;;;5072592;28;20580;-76
2021/04/04 09:25:32;;;;;;;3.42;3.22;;;10.50;99.90;;;;;;5072559;28;20217;-77
2021/04/04 09:28:06;;;;;;;3.92;3.03;;;10.60;99.90;;;;;;5071520;28;20226;-77
2021/04/04 09:30:38;;;;;;;4.10;3.28;;;10.80;99.90;;;;;;5072661;28;20204;-78
2021/04/04 09:33:10;;;;;;;2.05;1.67;;;10.80;99.90;;;;;;5072911;28;20170;-77
2021/04/04 09:35:38;;;;;;;3.83;2.17;;;11.00;99.90;;;;;;5072525;28;20193;-75
2021/04/04 09:38:07;;;;;;;1.50;1.50;;;10.90;99.90;;;;;;5072827;28;20159;-75
2021/04/04 09:40:34;;;;;;;7.57;1.80;;;10.60;99.90;;;;;;5072513;28;20180;-75
2021/04/04 09:43:08;;;;;;;3.35;3.05;;;10.50;99.90;;;;;;5072443;28;20169;-74
2021/04/04 09:45:34;;;;;;;2.67;2.47;;;10.40;99.90;;;;;;5072341;28;20295;-74
2021/04/04 09:48:37;;;;;;;2.00;1.80;;;10.50;99.90;;;;;;5072336;28;20644;-80
2021/04/04 09:51:14;;;;;;;3.85;2.75;;;10.70;99.90;;;;;;5076631;28;20162;-74
2021/04/04 09:53:40;;;;;;;2.97;1.42;;;11.00;99.90;;;;;;5076683;28;20162;-74
2021/04/04 09:56:30;;;;;;;3.13;2.95;;;10.70;99.90;;;;;;5076283;28;20190;-74
2021/04/04 09:58:56;;;;;;;2.72;2.47;;;10.90;99.90;;;;;;5076237;28;20175;-74
2021/04/04 10:01:27;;;;;;;2.42;2.00;;;11.20;99.90;;;;;;5075520;28;20171;-74
2021/04/04 10:04:05;;;;;;;5.03;3.55;;;11.50;99.90;;;;;;5066234;28;20221;-77
2021/04/04 10:06:36;;;;;;;1.55;1.50;;;11.10;99.90;;;;;;5073536;28;20292;-74
2021/04/04 10:09:05;;;;;;;2.90;2.08;;;10.80;99.90;;;;;;5070547;28;20202;-77
2021/04/04 10:11:33;;;;;;;10.85;3.00;;;11.00;99.90;;;;;;5056332;28;20615;-77
2021/04/04 10:14:12;;;;;;;4.38;2.03;;;11.00;99.90;;;;;;5056428;28;20522;-77
2021/04/04 10:16:38;;;;;;;5.28;2.08;;;11.40;99.90;;;;;;5054669;28;20288;-75
2021/04/04 10:19:12;;;;;;;7.57;3.17;;;11.50;99.90;;;;;;5070574;28;20595;-76
2021/04/04 10:21:39;;;;;;;2.70;1.67;;;11.80;99.90;;;;;;5073722;28;20649;-76
2021/04/04 10:24:24;;;;;;;3.25;2.40;;;11.70;99.90;;;;;;5063346;28;20206;-75
2021/04/04 10:27:29;;;;;;;4.40;2.22;;;11.70;99.90;;;;;;5062467;28;20218;-79
2021/04/04 10:30:18;;;;;;;7.93;1.75;;;11.40;99.90;;;;;;5054610;28;20182;-75
2021/04/04 10:32:49;;;;;;;3.65;2.97;;;11.50;99.90;;;;;;5055612;28;20203;-76
2021/04/04 10:35:33;;;;;;;0.98;0.88;;;11.70;99.90;;;;;;5057608;28;20170;-75
2021/04/04 10:38:13;;;;;;;2.65;1.70;;;11.50;99.90;;;;;;5059111;28;20658;-76
2021/04/04 10:40:57;;;;;;;26.85;2.88;;;11.80;99.90;;;;;;5071267;28;20166;-76
2021/04/04 10:43:33;;;;;;;1.75;1.65;;;11.60;99.90;;;;;;5073277;28;20166;-77
2021/04/04 10:46:23;;;;;;;4.20;2.33;;;11.60;99.90;;;;;;5074751;28;20210;-79
2021/04/04 10:48:49;;;;;;;1.63;1.45;;;11.90;99.90;;;;;;5065766;28;20170;-77
2021/04/04 10:51:16;;;;;;;2.65;1.60;;;12.20;99.90;;;;;;5066434;28;20186;-78
2021/04/04 10:53:43;;;;;;;4.07;1.95;;;12.20;99.90;;;;;;5074740;28;20625;-75
2021/04/04 10:56:12;;;;;;;3.08;2.10;;;11.60;99.90;;;;;;5059488;28;20190;-77
2021/04/04 10:58:38;;;;;;;1.33;1.33;;;11.10;99.90;;;;;;5073669;28;20181;-77
2021/04/04 11:01:06;;;;;;;2.60;2.00;;;11.20;99.90;;;;;;5052487;28;20523;-78
2021/04/04 11:03:32;;;;;;;2.15;2.00;;;11.00;99.90;;;;;;5063678;28;20151;-78
2021/04/04 11:05:58;;;;;;;3.10;2.42;;;11.30;99.90;;;;;;5056591;28;20214;-78
2021/04/04 11:08:24;;;;;;;1.17;1.17;;;11.40;99.90;;;;;;5054971;28;20167;-78
2021/04/04 11:10:51;;;;;;;2.40;1.42;;;11.60;99.90;;;;;;5067508;28;20293;-78
2021/04/04 11:13:18;;;;;;;2.20;2.05;;;11.80;99.90;;;;;;5075828;28;20195;-78
2021/04/04 11:16:08;;;;;;;1.75;1.65;;;11.60;99.90;;;;;;5078711;28;20195;-77
2021/04/04 11:18:37;;;;;;;1.60;1.20;;;11.40;99.90;;;;;;5074929;28;20171;-78
2021/04/04 11:21:09;;;;;;;3.25;1.55;;;11.90;99.90;;;;;;5073642;28;20271;-78
2021/04/04 11:23:37;;;;;;;2.03;1.42;;;11.90;99.90;;;;;;5058863;28;20163;-77
2021/04/04 11:26:33;;;;;;;1.85;1.58;;;12.00;99.90;;;;;;5063405;28;20308;-76
2021/04/04 11:29:08;;;;;;;1.05;1.05;;;12.30;99.90;;;;;;5073577;28;20208;-77
2021/04/04 11:31:34;;;;;;;1.02;1.02;;;12.30;99.90;;;;;;5065758;28;20170;-78
2021/04/04 11:34:26;;;;;;;1.00;1.00;;;12.50;99.90;;;;;;5074774;28;20163;-79
2021/04/04 11:36:52;;;;;;;1.80;1.70;;;12.60;99.90;;;;;;5067147;28;20182;-79
2021/04/04 11:39:18;;;;;;;1.38;1.27;;;12.20;99.90;;;;;;5065191;28;21036;-77
2021/04/04 11:41:53;;;;;;;1.33;1.25;;;11.80;99.90;;;;;;5069219;28;20174;-77
2021/04/04 11:44:31;;;;;;;6.95;2.33;;;12.00;99.90;;;;;;5074788;28;20173;-77
2021/04/04 11:47:20;;;;;;;12.52;4.30;;;11.90;99.90;;;;;;5064938;28;20218;-77
2021/04/04 11:49:48;;;;;;;1.05;0.98;;;11.70;99.90;;;;;;5072359;28;20219;-77
2021/04/04 11:52:34;;;;;;;1.50;1.13;;;11.70;99.90;;;;;;5073882;28;20186;-77
2021/04/04 11:55:00;;;;;;;7.38;2.97;;;12.00;99.90;;;;;;5065299;28;20179;-78
2021/04/04 11:57:26;;;;;;;0.85;0.85;;;12.00;99.90;;;;;;5070484;28;20217;-77
2021/04/04 11:59:54;;;;;;;12.52;1.15;;;11.90;99.90;;;;;;5072280;28;20171;-78
2021/04/04 12:02:21;;;;;;;1.80;1.10;;;12.10;99.90;;;;;;5070702;28;20289;-78
2021/04/04 12:05:09;;;;;;;2.85;1.88;;;12.00;99.90;;;;;;5073237;28;20181;-77
2021/04/04 12:07:52;;;;;;;0.60;0.60;;;12.00;99.90;;;;;;5054171;28;20286;-77
2021/04/04 12:10:23;;;;;;;0.57;0.57;;;12.00;99.90;;;;;;5053847;28;20645;-77
2021/04/04 12:12:49;;;;;;;2.55;1.95;;;12.10;99.90;;;;;;5056601;28;20660;-76
2021/04/04 12:15:17;;;;;;;4.95;2.65;;;12.00;99.90;;;;;;5062838;28;20207;-78
2021/04/04 12:17:48;;;;;;;1.23;1.00;;;11.70;99.90;;;;;;5054381;28;20168;-78
2021/04/04 12:20:18;;;;;;;1.75;1.65;;;11.60;99.90;;;;;;5064512;28;20313;-78
2021/04/04 12:22:45;;;;;;;0.77;0.77;;;11.60;99.90;;;;;;5064723;28;20166;-77
2021/04/04 12:25:15;;;;;;;1.15;1.00;;;11.60;99.90;;;;;;5071095;28;20218;-78
2021/04/04 12:27:42;;;;;;;0.95;0.93;;;11.50;99.90;;;;;;5057967;28;20793;-78
2021/04/04 12:30:20;;;;;;;1.50;1.42;;;11.50;99.90;;;;;;5073038;28;20520;-78
2021/04/04 12:32:46;;;;;;;0.85;0.85;;;11.70;99.90;;;;;;5061194;28;20746;-78
2021/04/04 12:35:23;;;;;;;3.42;2.10;;;11.80;99.90;;;;;;5062671;28;20163;-75
2021/04/04 12:37:49;;;;;;;6.15;0.80;;;11.80;99.90;;;;;;5068939;28;20165;-77
2021/04/04 12:40:18;;;;;;;1.02;1.00;;;11.70;99.90;;;;;;5066415;28;20700;-76
2021/04/04 12:42:44;;;;;;;11.98;0.90;;;12.00;99.90;;;;;;5072874;28;20163;-77
2021/04/04 12:45:12;;;;;;;4.22;0.98;;;12.20;99.90;;;;;;5072341;28;20174;-78
2021/04/04 12:47:40;;;;;;;1.23;1.10;;;12.10;99.90;;;;;;5070721;28;20171;-78
2021/04/04 12:50:10;;;;;;;0.52;0.52;;;12.50;99.90;;;;;;5071640;28;20246;-77
2021/04/04 12:52:49;;;;;;;1.65;1.55;;;12.50;99.90;;;;;;5067900;28;20236;-77
2021/04/04 12:55:27;;;;;;;1.67;1.55;;;12.40;99.90;;;;;;5052472;28;20171;-79
2021/04/04 12:58:00;;;;;;;0.98;0.98;;;12.60;99.90;;;;;;5052570;28;20175;-79
2021/04/04 13:00:28;;;;;;;0.82;0.82;;;12.70;99.90;;;;;;5053555;28;20209;-78
2021/04/04 13:03:08;;;;;;;5.30;1.90;;;12.50;99.90;;;;;;5071106;28;20189;-79
2021/04/04 13:05:40;;;;;;;0.82;0.82;;;12.50;99.90;;;;;;5072014;28;20229;-78
2021/04/04 13:08:20;;;;;;;13.05;0.95;;;12.60;99.90;;;;;;5077929;28;20645;-80
2021/04/04 13:10:48;;;;;;;0.98;0.98;;;12.30;99.90;;;;;;5079529;28;20646;-77
2021/04/04 13:13:18;;;;;;;1.38;1.38;;;12.00;99.90;;;;;;5074508;28;20181;-76
2021/04/04 13:15:44;;;;;;;1.25;1.15;;;12.30;99.90;;;;;;5075271;28;20197;-77
2021/04/04 13:18:24;;;;;;;12.63;2.88;;;12.20;99.90;;;;;;5073983;28;20169;-76
2021/04/04 13:20:56;;;;;;;16.75;1.58;;;12.20;99.90;;;;;;5077458;28;20178;-76
2021/04/04 13:23:22;;;;;;;1.13;1.13;;;12.10;99.90;;;;;;5074053;28;20169;-76